sensor_id;sensor_type;location;lat;lon;timestamp;P1;durP1;ratioP1;P2;durP2;ratioP2
76103;SDS011;64831;44.870;37.336;2022-12-16T00:01:10;15.18;;;5.40;;
76103;SDS011;64831;44.870;37.336;2022-12-16T00:03:41;16.02;;;7.13;;
76103;SDS011;64831;44.870;37.336;2022-12-16T00:06:11;14.75;;;5.78;;
76103;SDS011;64831;44.870;37.336;2022-12-16T00:08:37;16.38;;;6.47;;
76103;SDS011;64831;44.870;37.336;2022-12-16T00:11:04;14.30;;;6.63;;
76103;SDS011;64831;44.870;37.336;2022-12-16T00:13:31;15.32;;;6.45;;
76103;SDS011;64831;44.870;37.336;2022-12-16T00:15:58;24.85;;;7.07;;
76103;SDS011;64831;44.870;37.336;2022-12-16T00:18:28;16.95;;;6.85;;
76103;SDS011;64831;44.870;37.336;2022-12-16T00:20:54;14.80;;;5.97;;
76103;SDS011;64831;44.870;37.336;2022-12-16T00:23:20;12.07;;;5.57;;
76103;SDS011;64831;44.870;37.336;2022-12-16T00:25:46;15.82;;;7.38;;
76103;SDS011;64831;44.870;37.336;2022-12-16T00:28:14;13.48;;;5.63;;
76103;SDS011;64831;44.870;37.336;2022-12-16T00:30:42;14.82;;;5.90;;
76103;SDS011;64831;44.870;37.336;2022-12-16T00:33:09;13.48;;;5.88;;
76103;SDS011;64831;44.870;37.336;2022-12-16T00:35:35;13.60;;;5.65;;
76103;SDS011;64831;44.870;37.336;2022-12-16T00:38:01;18.27;;;6.15;;
76103;SDS011;64831;44.870;37.336;2022-12-16T00:40:27;14.30;;;6.10;;
76103;SDS011;64831;44.870;37.336;2022-12-16T00:42:53;17.17;;;6.68;;
76103;SDS011;64831;44.870;37.336;2022-12-16T00:45:19;20.83;;;5.90;;
76103;SDS011;64831;44.870;37.336;2022-12-16T00:47:45;12.25;;;6.35;;
76103;SDS011;64831;44.870;37.336;2022-12-16T00:50:13;16.88;;;7.28;;
76103;SDS011;64831;44.870;37.336;2022-12-16T00:52:40;14.32;;;6.57;;
76103;SDS011;64831;44.870;37.336;2022-12-16T00:55:05;15.77;;;6.05;;
76103;SDS011;64831;44.870;37.336;2022-12-16T00:57:32;14.38;;;6.38;;
76103;SDS011;64831;44.870;37.336;2022-12-16T00:59:58;10.98;;;5.88;;
76103;SDS011;64831;44.870;37.336;2022-12-16T01:02:24;23.77;;;6.28;;
76103;SDS011;64831;44.870;37.336;2022-12-16T01:04:50;22.60;;;6.10;;
76103;SDS011;64831;44.870;37.336;2022-12-16T01:07:16;18.48;;;6.88;;
76103;SDS011;64831;44.870;37.336;2022-12-16T01:09:41;17.20;;;6.18;;
76103;SDS011;64831;44.870;37.336;2022-12-16T01:12:08;15.10;;;6.32;;
76103;SDS011;64831;44.870;37.336;2022-12-16T01:14:34;16.48;;;5.40;;
76103;SDS011;64831;44.870;37.336;2022-12-16T01:17:00;6.70;;;3.10;;
76103;SDS011;64831;44.870;37.336;2022-12-16T01:19:26;7.25;;;3.40;;
76103;SDS011;64831;44.870;37.336;2022-12-16T01:21:51;12.57;;;3.33;;
76103;SDS011;64831;44.870;37.336;2022-12-16T01:24:17;6.82;;;3.38;;
76103;SDS011;64831;44.870;37.336;2022-12-16T01:26:43;7.38;;;3.15;;
76103;SDS011;64831;44.870;37.336;2022-12-16T01:29:09;14.93;;;3.90;;
76103;SDS011;64831;44.870;37.336;2022-12-16T01:31:35;11.95;;;3.90;;
76103;SDS011;64831;44.870;37.336;2022-12-16T01:34:02;7.10;;;3.80;;
76103;SDS011;64831;44.870;37.336;2022-12-16T01:36:28;8.55;;;4.05;;
76103;SDS011;64831;44.870;37.336;2022-12-16T01:38:54;10.32;;;4.10;;
76103;SDS011;64831;44.870;37.336;2022-12-16T01:41:20;10.55;;;4.07;;
76103;SDS011;64831;44.870;37.336;2022-12-16T01:43:47;9.60;;;4.13;;
76103;SDS011;64831;44.870;37.336;2022-12-16T01:48:59;9.60;;;3.78;;
76103;SDS011;64831;44.870;37.336;2022-12-16T01:54:01;8.85;;;4.20;;
76103;SDS011;64831;44.870;37.336;2022-12-16T01:56:31;6.93;;;3.75;;
76103;SDS011;64831;44.870;37.336;2022-12-16T01:59:01;9.85;;;4.10;;
76103;SDS011;64831;44.870;37.336;2022-12-16T02:01:27;8.18;;;3.90;;
76103;SDS011;64831;44.870;37.336;2022-12-16T02:03:53;8.27;;;4.38;;
76103;SDS011;64831;44.870;37.336;2022-12-16T02:06:23;8.13;;;3.95;;
76103;SDS011;64831;44.870;37.336;2022-12-16T02:08:50;10.85;;;4.13;;
76103;SDS011;64831;44.870;37.336;2022-12-16T02:11:25;11.57;;;4.40;;
76103;SDS011;64831;44.870;37.336;2022-12-16T02:17:02;10.30;;;4.13;;
76103;SDS011;64831;44.870;37.336;2022-12-16T02:27:39;8.75;;;4.20;;
76103;SDS011;64831;44.870;37.336;2022-12-16T02:30:36;11.48;;;4.13;;
76103;SDS011;64831;44.870;37.336;2022-12-16T02:33:27;6.75;;;3.72;;
76103;SDS011;64831;44.870;37.336;2022-12-16T02:36:24;7.38;;;3.90;;
76103;SDS011;64831;44.870;37.336;2022-12-16T02:42:08;8.57;;;3.90;;
76103;SDS011;64831;44.870;37.336;2022-12-16T02:47:09;7.30;;;3.97;;
76103;SDS011;64831;44.870;37.336;2022-12-16T02:52:09;12.43;;;4.88;;
76103;SDS011;64831;44.870;37.336;2022-12-16T02:54:37;10.63;;;4.13;;
76103;SDS011;64831;44.870;37.336;2022-12-16T03:05:23;9.15;;;4.28;;
76103;SDS011;64831;44.870;37.336;2022-12-16T03:07:59;13.52;;;4.38;;
76103;SDS011;64831;44.870;37.336;2022-12-16T03:10:32;9.40;;;4.32;;
76103;SDS011;64831;44.870;37.336;2022-12-16T03:13:02;9.52;;;4.25;;
76103;SDS011;64831;44.870;37.336;2022-12-16T03:15:30;11.93;;;4.47;;
76103;SDS011;64831;44.870;37.336;2022-12-16T03:17:59;15.57;;;4.90;;
76103;SDS011;64831;44.870;37.336;2022-12-16T03:20:49;9.75;;;4.47;;
76103;SDS011;64831;44.870;37.336;2022-12-16T03:23:14;9.68;;;4.68;;
76103;SDS011;64831;44.870;37.336;2022-12-16T03:25:44;9.13;;;4.35;;
76103;SDS011;64831;44.870;37.336;2022-12-16T03:30:53;9.15;;;4.53;;
76103;SDS011;64831;44.870;37.336;2022-12-16T03:33:34;10.13;;;4.35;;
76103;SDS011;64831;44.870;37.336;2022-12-16T03:36:08;11.90;;;4.60;;
76103;SDS011;64831;44.870;37.336;2022-12-16T03:38:39;8.30;;;4.40;;
76103;SDS011;64831;44.870;37.336;2022-12-16T03:41:07;9.98;;;4.20;;
76103;SDS011;64831;44.870;37.336;2022-12-16T03:43:33;13.57;;;5.00;;
76103;SDS011;64831;44.870;37.336;2022-12-16T03:46:00;11.27;;;5.22;;
76103;SDS011;64831;44.870;37.336;2022-12-16T03:48:29;8.95;;;4.93;;
76103;SDS011;64831;44.870;37.336;2022-12-16T03:50:55;9.18;;;4.43;;
76103;SDS011;64831;44.870;37.336;2022-12-16T03:53:21;8.15;;;4.55;;
76103;SDS011;64831;44.870;37.336;2022-12-16T03:55:50;10.95;;;4.93;;
76103;SDS011;64831;44.870;37.336;2022-12-16T03:58:17;10.07;;;5.10;;
76103;SDS011;64831;44.870;37.336;2022-12-16T04:00:43;12.60;;;5.25;;
76103;SDS011;64831;44.870;37.336;2022-12-16T04:03:09;10.00;;;4.88;;
76103;SDS011;64831;44.870;37.336;2022-12-16T04:05:35;7.57;;;4.32;;
76103;SDS011;64831;44.870;37.336;2022-12-16T04:08:01;8.63;;;4.80;;
76103;SDS011;64831;44.870;37.336;2022-12-16T04:10:26;11.55;;;4.50;;
76103;SDS011;64831;44.870;37.336;2022-12-16T04:13:11;8.40;;;4.40;;
76103;SDS011;64831;44.870;37.336;2022-12-16T04:15:55;10.18;;;5.25;;
76103;SDS011;64831;44.870;37.336;2022-12-16T04:18:40;12.55;;;5.07;;
76103;SDS011;64831;44.870;37.336;2022-12-16T04:21:24;11.40;;;5.03;;
76103;SDS011;64831;44.870;37.336;2022-12-16T04:24:11;12.18;;;4.93;;
76103;SDS011;64831;44.870;37.336;2022-12-16T04:26:44;8.77;;;4.70;;
76103;SDS011;64831;44.870;37.336;2022-12-16T04:29:29;8.73;;;4.90;;
76103;SDS011;64831;44.870;37.336;2022-12-16T04:31:55;10.75;;;5.72;;
76103;SDS011;64831;44.870;37.336;2022-12-16T04:34:22;10.60;;;5.47;;
76103;SDS011;64831;44.870;37.336;2022-12-16T20:20:42;5.75;;;1.73;;
76103;SDS011;64831;44.870;37.336;2022-12-16T20:23:28;4.72;;;1.60;;
76103;SDS011;64831;44.870;37.336;2022-12-16T20:26:12;7.20;;;1.42;;
76103;SDS011;64831;44.870;37.336;2022-12-16T20:28:56;5.88;;;2.20;;
76103;SDS011;64831;44.870;37.336;2022-12-16T20:31:41;5.25;;;1.55;;
76103;SDS011;64831;44.870;37.336;2022-12-16T20:34:25;1.98;;;1.38;;
76103;SDS011;64831;44.870;37.336;2022-12-16T20:37:09;6.35;;;1.90;;
76103;SDS011;64831;44.870;37.336;2022-12-16T20:39:54;7.40;;;3.65;;
76103;SDS011;64831;44.870;37.336;2022-12-16T20:42:38;4.45;;;1.60;;
76103;SDS011;64831;44.870;37.336;2022-12-16T20:45:22;7.72;;;2.00;;
76103;SDS011;64831;44.870;37.336;2022-12-16T20:48:07;4.07;;;1.50;;
76103;SDS011;64831;44.870;37.336;2022-12-16T20:50:56;4.72;;;1.38;;
76103;SDS011;64831;44.870;37.336;2022-12-16T20:53:41;6.38;;;1.80;;
76103;SDS011;64831;44.870;37.336;2022-12-16T20:56:26;8.98;;;1.67;;
76103;SDS011;64831;44.870;37.336;2022-12-16T20:59:10;3.55;;;1.50;;
76103;SDS011;64831;44.870;37.336;2022-12-16T21:01:54;6.03;;;1.58;;
76103;SDS011;64831;44.870;37.336;2022-12-16T21:04:53;5.53;;;1.23;;
76103;SDS011;64831;44.870;37.336;2022-12-16T21:07:37;4.72;;;1.80;;
76103;SDS011;64831;44.870;37.336;2022-12-16T21:10:21;4.10;;;1.40;;
76103;SDS011;64831;44.870;37.336;2022-12-16T21:13:11;4.15;;;1.60;;
76103;SDS011;64831;44.870;37.336;2022-12-16T21:16:05;4.18;;;1.58;;
76103;SDS011;64831;44.870;37.336;2022-12-16T21:18:50;6.03;;;1.50;;
76103;SDS011;64831;44.870;37.336;2022-12-16T21:21:38;7.65;;;1.67;;
76103;SDS011;64831;44.870;37.336;2022-12-16T21:24:22;8.60;;;2.20;;
76103;SDS011;64831;44.870;37.336;2022-12-16T21:27:07;5.22;;;1.48;;
76103;SDS011;64831;44.870;37.336;2022-12-16T21:29:52;4.15;;;1.52;;
76103;SDS011;64831;44.870;37.336;2022-12-16T21:32:36;5.43;;;1.60;;
76103;SDS011;64831;44.870;37.336;2022-12-16T21:35:20;4.80;;;1.15;;
76103;SDS011;64831;44.870;37.336;2022-12-16T21:38:08;5.15;;;1.70;;
76103;SDS011;64831;44.870;37.336;2022-12-16T21:40:53;6.95;;;2.55;;
76103;SDS011;64831;44.870;37.336;2022-12-16T21:43:38;7.70;;;2.00;;
76103;SDS011;64831;44.870;37.336;2022-12-16T21:46:23;5.40;;;2.10;;
76103;SDS011;64831;44.870;37.336;2022-12-16T21:49:07;3.25;;;1.52;;
76103;SDS011;64831;44.870;37.336;2022-12-16T21:51:52;5.55;;;1.75;;
76103;SDS011;64831;44.870;37.336;2022-12-16T21:54:39;3.63;;;1.67;;
76103;SDS011;64831;44.870;37.336;2022-12-16T21:57:27;7.40;;;1.70;;
76103;SDS011;64831;44.870;37.336;2022-12-16T22:00:11;6.20;;;2.15;;
76103;SDS011;64831;44.870;37.336;2022-12-16T22:02:56;2.05;;;1.73;;
76103;SDS011;64831;44.870;37.336;2022-12-16T22:05:40;7.53;;;1.60;;
76103;SDS011;64831;44.870;37.336;2022-12-16T22:08:26;7.15;;;2.40;;
76103;SDS011;64831;44.870;37.336;2022-12-16T22:11:11;4.65;;;1.52;;
76103;SDS011;64831;44.870;37.336;2022-12-16T22:13:56;6.68;;;2.13;;
76103;SDS011;64831;44.870;37.336;2022-12-16T22:16:41;3.20;;;1.38;;
76103;SDS011;64831;44.870;37.336;2022-12-16T22:19:26;3.65;;;1.77;;
76103;SDS011;64831;44.870;37.336;2022-12-16T22:22:10;4.03;;;1.35;;
76103;SDS011;64831;44.870;37.336;2022-12-16T22:24:56;4.85;;;1.65;;
76103;SDS011;64831;44.870;37.336;2022-12-16T22:27:40;5.25;;;1.80;;
76103;SDS011;64831;44.870;37.336;2022-12-16T22:30:24;2.90;;;1.70;;
76103;SDS011;64831;44.870;37.336;2022-12-16T22:33:11;3.50;;;1.35;;
76103;SDS011;64831;44.870;37.336;2022-12-16T22:35:59;5.68;;;1.60;;
76103;SDS011;64831;44.870;37.336;2022-12-16T22:38:45;8.48;;;1.80;;
76103;SDS011;64831;44.870;37.336;2022-12-16T22:41:29;5.80;;;1.75;;
76103;SDS011;64831;44.870;37.336;2022-12-16T22:44:14;4.78;;;1.77;;
76103;SDS011;64831;44.870;37.336;2022-12-16T22:46:58;3.50;;;1.70;;
76103;SDS011;64831;44.870;37.336;2022-12-16T22:49:43;3.40;;;1.50;;
76103;SDS011;64831;44.870;37.336;2022-12-16T22:52:27;3.05;;;1.48;;
76103;SDS011;64831;44.870;37.336;2022-12-16T22:55:11;5.28;;;1.75;;
76103;SDS011;64831;44.870;37.336;2022-12-16T22:57:56;7.32;;;2.03;;
76103;SDS011;64831;44.870;37.336;2022-12-16T23:00:40;6.50;;;1.73;;
76103;SDS011;64831;44.870;37.336;2022-12-16T23:03:24;6.88;;;2.40;;
76103;SDS011;64831;44.870;37.336;2022-12-16T23:06:09;5.75;;;1.70;;
76103;SDS011;64831;44.870;37.336;2022-12-16T23:08:54;5.40;;;2.03;;
76103;SDS011;64831;44.870;37.336;2022-12-16T23:11:39;2.25;;;1.42;;
76103;SDS011;64831;44.870;37.336;2022-12-16T23:14:24;3.95;;;1.70;;
76103;SDS011;64831;44.870;37.336;2022-12-16T23:17:11;6.53;;;1.92;;
76103;SDS011;64831;44.870;37.336;2022-12-16T23:19:56;6.10;;;2.15;;
76103;SDS011;64831;44.870;37.336;2022-12-16T23:22:40;6.70;;;2.25;;
76103;SDS011;64831;44.870;37.336;2022-12-16T23:25:24;8.23;;;2.20;;
76103;SDS011;64831;44.870;37.336;2022-12-16T23:28:09;3.25;;;1.67;;
76103;SDS011;64831;44.870;37.336;2022-12-16T23:30:54;5.95;;;1.70;;
76103;SDS011;64831;44.870;37.336;2022-12-16T23:33:39;6.65;;;1.92;;
76103;SDS011;64831;44.870;37.336;2022-12-16T23:36:24;7.43;;;2.58;;
76103;SDS011;64831;44.870;37.336;2022-12-16T23:39:09;5.13;;;1.50;;
76103;SDS011;64831;44.870;37.336;2022-12-16T23:41:53;7.38;;;1.45;;
76103;SDS011;64831;44.870;37.336;2022-12-16T23:44:38;3.15;;;1.58;;
76103;SDS011;64831;44.870;37.336;2022-12-16T23:47:24;5.30;;;1.67;;
76103;SDS011;64831;44.870;37.336;2022-12-16T23:50:09;4.18;;;1.65;;
76103;SDS011;64831;44.870;37.336;2022-12-16T23:53:03;4.93;;;1.70;;
76103;SDS011;64831;44.870;37.336;2022-12-16T23:55:53;4.53;;;1.60;;
76103;SDS011;64831;44.870;37.336;2022-12-16T23:58:39;3.67;;;1.67;;
